SOG weather

Sogndal Airport
Sogndal, Sogn og Fjordane, Norway

Public forecast

Using degrees Celsius for public forecast. Weather courtesy of forecast.io.

Current aviation weather report (METAR) for Sogndal Airport

Retrieved 2019/12/13 16:20 UTC (0 seconds ago):

ENSG 131620Z 05008KT 9999 SCT050 01/M06 Q0984 RMK WIND 3806FT 13026KT

Closest aviation forecast (TAF) to Sogndal Airport

Closest forecast is Bergen Airport Flesland, 76.5 nm (141.8 km) SW. Retrieved 2019/12/13 12:57 UTC (3 hours ago):

TAF ENBR 131100Z 1312/1412 VRB07KT 9999 FEW015 SCT050 PROB30 TEMPO 1315/1412 14015G25KT